sensor_id;sensor_type;location;lat;lon;timestamp;P1;durP1;ratioP1;P2;durP2;ratioP2
18677;SDS011;9469;51.114;13.914;2023-05-07T00:03:29;22.77;;;18.13;;
18677;SDS011;9469;51.114;13.914;2023-05-07T00:08:37;23.37;;;18.13;;
18677;SDS011;9469;51.114;13.914;2023-05-07T00:13:45;24.97;;;18.27;;
18677;SDS011;9469;51.114;13.914;2023-05-07T00:18:59;28.83;;;19.00;;
18677;SDS011;9469;51.114;13.914;2023-05-07T00:24:08;26.77;;;19.33;;
18677;SDS011;9469;51.114;13.914;2023-05-07T00:29:13;21.00;;;15.83;;
18677;SDS011;9469;51.114;13.914;2023-05-07T00:34:25;26.03;;;18.97;;
18677;SDS011;9469;51.114;13.914;2023-05-07T00:39:30;22.23;;;16.90;;
18677;SDS011;9469;51.114;13.914;2023-05-07T00:44:39;23.43;;;17.53;;
18677;SDS011;9469;51.114;13.914;2023-05-07T00:49:47;23.30;;;18.23;;
18677;SDS011;9469;51.114;13.914;2023-05-07T00:54:53;24.70;;;17.70;;
18677;SDS011;9469;51.114;13.914;2023-05-07T00:59:59;21.27;;;16.03;;
18677;SDS011;9469;51.114;13.914;2023-05-07T01:05:12;20.97;;;16.80;;
18677;SDS011;9469;51.114;13.914;2023-05-07T01:10:19;24.70;;;18.90;;
18677;SDS011;9469;51.114;13.914;2023-05-07T01:15:24;23.07;;;17.73;;
18677;SDS011;9469;51.114;13.914;2023-05-07T01:20:37;22.13;;;17.47;;
18677;SDS011;9469;51.114;13.914;2023-05-07T01:25:56;20.77;;;17.03;;
18677;SDS011;9469;51.114;13.914;2023-05-07T01:31:04;21.40;;;16.73;;
18677;SDS011;9469;51.114;13.914;2023-05-07T01:36:14;18.50;;;15.17;;
18677;SDS011;9469;51.114;13.914;2023-05-07T01:41:25;20.83;;;14.57;;
18677;SDS011;9469;51.114;13.914;2023-05-07T01:46:31;23.07;;;15.83;;
18677;SDS011;9469;51.114;13.914;2023-05-07T01:51:42;21.13;;;15.63;;
18677;SDS011;9469;51.114;13.914;2023-05-07T01:56:51;18.77;;;13.83;;
18677;SDS011;9469;51.114;13.914;2023-05-07T02:01:58;18.53;;;12.43;;
18677;SDS011;9469;51.114;13.914;2023-05-07T02:07:04;16.97;;;11.80;;
18677;SDS011;9469;51.114;13.914;2023-05-07T02:12:15;18.67;;;14.30;;
18677;SDS011;9469;51.114;13.914;2023-05-07T02:17:21;22.40;;;16.27;;
18677;SDS011;9469;51.114;13.914;2023-05-07T02:22:29;20.10;;;14.53;;
18677;SDS011;9469;51.114;13.914;2023-05-07T02:27:39;22.50;;;15.30;;
18677;SDS011;9469;51.114;13.914;2023-05-07T02:32:51;22.57;;;15.57;;
18677;SDS011;9469;51.114;13.914;2023-05-07T02:37:56;26.03;;;16.57;;
18677;SDS011;9469;51.114;13.914;2023-05-07T02:43:05;24.37;;;15.80;;
18677;SDS011;9469;51.114;13.914;2023-05-07T02:48:16;24.37;;;16.10;;
18677;SDS011;9469;51.114;13.914;2023-05-07T02:53:22;23.00;;;15.27;;
18677;SDS011;9469;51.114;13.914;2023-05-07T02:58:30;22.47;;;15.43;;
18677;SDS011;9469;51.114;13.914;2023-05-07T03:03:37;20.83;;;14.90;;
18677;SDS011;9469;51.114;13.914;2023-05-07T03:08:47;21.73;;;15.20;;
18677;SDS011;9469;51.114;13.914;2023-05-07T03:13:58;23.33;;;15.57;;
18677;SDS011;9469;51.114;13.914;2023-05-07T03:19:03;26.70;;;16.97;;
18677;SDS011;9469;51.114;13.914;2023-05-07T03:24:11;29.23;;;17.33;;
18677;SDS011;9469;51.114;13.914;2023-05-07T03:29:21;31.80;;;19.47;;
18677;SDS011;9469;51.114;13.914;2023-05-07T03:34:28;28.60;;;18.70;;
18677;SDS011;9469;51.114;13.914;2023-05-07T03:39:36;33.67;;;19.77;;
18677;SDS011;9469;51.114;13.914;2023-05-07T03:44:44;30.77;;;18.53;;
18677;SDS011;9469;51.114;13.914;2023-05-07T03:49:51;32.67;;;19.37;;
18677;SDS011;9469;51.114;13.914;2023-05-07T03:54:59;31.43;;;20.13;;
18677;SDS011;9469;51.114;13.914;2023-05-07T04:00:14;26.60;;;17.10;;
18677;SDS011;9469;51.114;13.914;2023-05-07T04:05:22;26.77;;;17.40;;
18677;SDS011;9469;51.114;13.914;2023-05-07T04:10:33;27.40;;;17.37;;
18677;SDS011;9469;51.114;13.914;2023-05-07T04:15:48;30.10;;;17.03;;
18677;SDS011;9469;51.114;13.914;2023-05-07T04:20:54;27.67;;;16.57;;
18677;SDS011;9469;51.114;13.914;2023-05-07T04:26:02;28.33;;;17.63;;
18677;SDS011;9469;51.114;13.914;2023-05-07T04:31:16;26.77;;;17.43;;
18677;SDS011;9469;51.114;13.914;2023-05-07T04:36:27;27.13;;;17.33;;
18677;SDS011;9469;51.114;13.914;2023-05-07T04:41:36;26.60;;;18.17;;
18677;SDS011;9469;51.114;13.914;2023-05-07T04:46:46;30.33;;;18.50;;
18677;SDS011;9469;51.114;13.914;2023-05-07T04:51:52;32.30;;;18.30;;
18677;SDS011;9469;51.114;13.914;2023-05-07T04:56:58;31.33;;;20.20;;
18677;SDS011;9469;51.114;13.914;2023-05-07T05:02:06;23.87;;;15.63;;
18677;SDS011;9469;51.114;13.914;2023-05-07T05:07:22;25.80;;;17.10;;
18677;SDS011;9469;51.114;13.914;2023-05-07T05:12:29;23.40;;;16.27;;
18677;SDS011;9469;51.114;13.914;2023-05-07T05:17:39;21.47;;;15.33;;
18677;SDS011;9469;51.114;13.914;2023-05-07T05:22:45;20.53;;;13.90;;
18677;SDS011;9469;51.114;13.914;2023-05-07T05:27:51;20.30;;;13.80;;
18677;SDS011;9469;51.114;13.914;2023-05-07T05:33:02;20.77;;;13.10;;
18677;SDS011;9469;51.114;13.914;2023-05-07T05:38:09;21.43;;;13.67;;
18677;SDS011;9469;51.114;13.914;2023-05-07T05:43:16;22.30;;;12.63;;
18677;SDS011;9469;51.114;13.914;2023-05-07T05:48:24;17.73;;;12.73;;
18677;SDS011;9469;51.114;13.914;2023-05-07T05:53:35;14.67;;;10.63;;
18677;SDS011;9469;51.114;13.914;2023-05-07T05:58:44;15.90;;;12.27;;
18677;SDS011;9469;51.114;13.914;2023-05-07T06:03:53;16.40;;;11.33;;
18677;SDS011;9469;51.114;13.914;2023-05-07T06:08:58;14.97;;;12.50;;
18677;SDS011;9469;51.114;13.914;2023-05-07T06:14:11;18.00;;;13.07;;
18677;SDS011;9469;51.114;13.914;2023-05-07T06:19:24;20.67;;;15.20;;
18677;SDS011;9469;51.114;13.914;2023-05-07T06:24:32;17.20;;;12.80;;
18677;SDS011;9469;51.114;13.914;2023-05-07T06:29:42;18.27;;;12.23;;
18677;SDS011;9469;51.114;13.914;2023-05-07T06:34:52;14.40;;;10.07;;
18677;SDS011;9469;51.114;13.914;2023-05-07T06:40:01;12.13;;;9.17;;
18677;SDS011;9469;51.114;13.914;2023-05-07T06:45:12;10.40;;;8.50;;
18677;SDS011;9469;51.114;13.914;2023-05-07T06:50:20;10.17;;;8.53;;
18677;SDS011;9469;51.114;13.914;2023-05-07T06:55:33;8.70;;;7.70;;
18677;SDS011;9469;51.114;13.914;2023-05-07T07:00:40;12.03;;;8.03;;
18677;SDS011;9469;51.114;13.914;2023-05-07T07:05:53;9.70;;;7.50;;
18677;SDS011;9469;51.114;13.914;2023-05-07T07:10:59;8.57;;;6.47;;
18677;SDS011;9469;51.114;13.914;2023-05-07T07:16:06;7.27;;;6.17;;
18677;SDS011;9469;51.114;13.914;2023-05-07T07:21:15;7.53;;;6.73;;
18677;SDS011;9469;51.114;13.914;2023-05-07T07:26:26;6.37;;;5.77;;
18677;SDS011;9469;51.114;13.914;2023-05-07T07:31:31;7.00;;;6.30;;
18677;SDS011;9469;51.114;13.914;2023-05-07T07:36:40;6.77;;;6.07;;
18677;SDS011;9469;51.114;13.914;2023-05-07T07:41:51;10.10;;;7.03;;
18677;SDS011;9469;51.114;13.914;2023-05-07T07:46:58;7.77;;;6.50;;
18677;SDS011;9469;51.114;13.914;2023-05-07T07:52:09;8.07;;;6.40;;
18677;SDS011;9469;51.114;13.914;2023-05-07T07:57:21;7.90;;;6.93;;
18677;SDS011;9469;51.114;13.914;2023-05-07T08:02:29;9.13;;;8.00;;
18677;SDS011;9469;51.114;13.914;2023-05-07T08:07:37;8.73;;;7.47;;
18677;SDS011;9469;51.114;13.914;2023-05-07T08:12:44;8.30;;;7.43;;
18677;SDS011;9469;51.114;13.914;2023-05-07T08:17:52;10.03;;;8.60;;
18677;SDS011;9469;51.114;13.914;2023-05-07T08:23:02;9.83;;;8.47;;
18677;SDS011;9469;51.114;13.914;2023-05-07T08:28:08;9.67;;;8.33;;
18677;SDS011;9469;51.114;13.914;2023-05-07T08:33:15;12.53;;;9.33;;
18677;SDS011;9469;51.114;13.914;2023-05-07T08:38:24;13.83;;;10.20;;
18677;SDS011;9469;51.114;13.914;2023-05-07T08:43:34;12.03;;;10.53;;
18677;SDS011;9469;51.114;13.914;2023-05-07T08:48:44;11.53;;;9.77;;
18677;SDS011;9469;51.114;13.914;2023-05-07T08:53:57;12.87;;;10.30;;
18677;SDS011;9469;51.114;13.914;2023-05-07T08:59:06;13.00;;;9.40;;
18677;SDS011;9469;51.114;13.914;2023-05-07T09:04:14;11.73;;;10.13;;
18677;SDS011;9469;51.114;13.914;2023-05-07T09:09:28;12.37;;;9.77;;
18677;SDS011;9469;51.114;13.914;2023-05-07T09:14:33;10.93;;;8.33;;
18677;SDS011;9469;51.114;13.914;2023-05-07T09:19:39;10.10;;;9.10;;
18677;SDS011;9469;51.114;13.914;2023-05-07T09:24:52;12.60;;;9.40;;
18677;SDS011;9469;51.114;13.914;2023-05-07T09:30:10;13.93;;;11.57;;
18677;SDS011;9469;51.114;13.914;2023-05-07T09:35:17;12.13;;;10.53;;
18677;SDS011;9469;51.114;13.914;2023-05-07T09:40:32;14.43;;;10.83;;
18677;SDS011;9469;51.114;13.914;2023-05-07T09:45:43;12.97;;;10.13;;
18677;SDS011;9469;51.114;13.914;2023-05-07T09:50:59;11.50;;;9.03;;
18677;SDS011;9469;51.114;13.914;2023-05-07T09:56:12;12.57;;;9.63;;
18677;SDS011;9469;51.114;13.914;2023-05-07T10:01:25;12.43;;;10.77;;
18677;SDS011;9469;51.114;13.914;2023-05-07T10:06:33;11.80;;;10.47;;
18677;SDS011;9469;51.114;13.914;2023-05-07T10:11:44;13.03;;;10.00;;
18677;SDS011;9469;51.114;13.914;2023-05-07T10:16:58;11.03;;;8.93;;
18677;SDS011;9469;51.114;13.914;2023-05-07T10:22:05;10.27;;;8.20;;
18677;SDS011;9469;51.114;13.914;2023-05-07T10:27:19;9.83;;;8.50;;
18677;SDS011;9469;51.114;13.914;2023-05-07T10:32:33;13.70;;;9.43;;
18677;SDS011;9469;51.114;13.914;2023-05-07T10:37:49;11.40;;;8.80;;
18677;SDS011;9469;51.114;13.914;2023-05-07T10:43:01;8.97;;;8.00;;
18677;SDS011;9469;51.114;13.914;2023-05-07T10:48:20;10.43;;;8.17;;
18677;SDS011;9469;51.114;13.914;2023-05-07T10:59:46;8.60;;;7.70;;
18677;SDS011;9469;51.114;13.914;2023-05-07T11:10:50;7.43;;;6.63;;
18677;SDS011;9469;51.114;13.914;2023-05-07T11:16:21;9.90;;;7.87;;
18677;SDS011;9469;51.114;13.914;2023-05-07T11:21:39;8.27;;;7.47;;
18677;SDS011;9469;51.114;13.914;2023-05-07T11:27:15;8.00;;;7.20;;
18677;SDS011;9469;51.114;13.914;2023-05-07T11:32:32;9.30;;;5.97;;
18677;SDS011;9469;51.114;13.914;2023-05-07T11:37:38;6.97;;;6.27;;
18677;SDS011;9469;51.114;13.914;2023-05-07T11:42:44;7.60;;;6.67;;
18677;SDS011;9469;51.114;13.914;2023-05-07T11:48:00;7.80;;;7.00;;
18677;SDS011;9469;51.114;13.914;2023-05-07T11:53:07;7.97;;;6.93;;
18677;SDS011;9469;51.114;13.914;2023-05-07T11:58:21;7.20;;;6.50;;
18677;SDS011;9469;51.114;13.914;2023-05-07T12:03:31;7.80;;;7.07;;
18677;SDS011;9469;51.114;13.914;2023-05-07T12:08:37;7.40;;;6.70;;
18677;SDS011;9469;51.114;13.914;2023-05-07T12:13:48;7.60;;;6.80;;
18677;SDS011;9469;51.114;13.914;2023-05-07T12:19:05;7.47;;;6.67;;
18677;SDS011;9469;51.114;13.914;2023-05-07T12:24:23;6.50;;;5.80;;
18677;SDS011;9469;51.114;13.914;2023-05-07T12:29:28;6.83;;;6.13;;
18677;SDS011;9469;51.114;13.914;2023-05-07T12:34:38;9.07;;;6.57;;
18677;SDS011;9469;51.114;13.914;2023-05-07T12:39:47;5.60;;;5.10;;
18677;SDS011;9469;51.114;13.914;2023-05-07T12:44:56;5.60;;;4.90;;
18677;SDS011;9469;51.114;13.914;2023-05-07T12:50:15;5.53;;;4.93;;
18677;SDS011;9469;51.114;13.914;2023-05-07T12:55:22;5.60;;;5.10;;
18677;SDS011;9469;51.114;13.914;2023-05-07T13:00:37;5.10;;;4.70;;
18677;SDS011;9469;51.114;13.914;2023-05-07T13:05:49;5.67;;;4.70;;
18677;SDS011;9469;51.114;13.914;2023-05-07T13:11:00;6.07;;;4.90;;
18677;SDS011;9469;51.114;13.914;2023-05-07T13:16:10;6.90;;;5.07;;
18677;SDS011;9469;51.114;13.914;2023-05-07T13:21:18;5.83;;;5.33;;
18677;SDS011;9469;51.114;13.914;2023-05-07T13:26:30;6.93;;;5.00;;
18677;SDS011;9469;51.114;13.914;2023-05-07T13:31:36;4.77;;;4.37;;
18677;SDS011;9469;51.114;13.914;2023-05-07T13:36:54;5.00;;;4.33;;
18677;SDS011;9469;51.114;13.914;2023-05-07T13:42:05;7.33;;;6.63;;
18677;SDS011;9469;51.114;13.914;2023-05-07T13:47:18;5.00;;;4.47;;
18677;SDS011;9469;51.114;13.914;2023-05-07T13:52:28;5.83;;;5.23;;
18677;SDS011;9469;51.114;13.914;2023-05-07T13:57:34;5.50;;;4.83;;
18677;SDS011;9469;51.114;13.914;2023-05-07T14:02:42;4.60;;;4.20;;
18677;SDS011;9469;51.114;13.914;2023-05-07T14:07:50;3.90;;;3.50;;
18677;SDS011;9469;51.114;13.914;2023-05-07T14:12:56;4.10;;;3.70;;
18677;SDS011;9469;51.114;13.914;2023-05-07T14:18:01;6.13;;;4.63;;
18677;SDS011;9469;51.114;13.914;2023-05-07T14:23:14;6.80;;;5.70;;
18677;SDS011;9469;51.114;13.914;2023-05-07T14:28:23;7.67;;;5.77;;
18677;SDS011;9469;51.114;13.914;2023-05-07T14:33:31;5.70;;;5.10;;
18677;SDS011;9469;51.114;13.914;2023-05-07T14:38:41;5.87;;;5.27;;
18677;SDS011;9469;51.114;13.914;2023-05-07T14:43:46;4.90;;;4.40;;
18677;SDS011;9469;51.114;13.914;2023-05-07T14:48:53;7.90;;;5.60;;
18677;SDS011;9469;51.114;13.914;2023-05-07T14:54:05;5.83;;;5.23;;
18677;SDS011;9469;51.114;13.914;2023-05-07T14:59:12;7.20;;;6.50;;
18677;SDS011;9469;51.114;13.914;2023-05-07T15:04:20;7.67;;;6.20;;
18677;SDS011;9469;51.114;13.914;2023-05-07T15:09:34;7.93;;;5.73;;
18677;SDS011;9469;51.114;13.914;2023-05-07T15:14:41;6.17;;;5.57;;
18677;SDS011;9469;51.114;13.914;2023-05-07T15:19:51;8.97;;;7.10;;
18677;SDS011;9469;51.114;13.914;2023-05-07T15:24:59;9.23;;;6.67;;
18677;SDS011;9469;51.114;13.914;2023-05-07T15:30:06;7.93;;;6.60;;
18677;SDS011;9469;51.114;13.914;2023-05-07T15:35:13;7.30;;;6.43;;
18677;SDS011;9469;51.114;13.914;2023-05-07T15:40:25;6.13;;;5.50;;
18677;SDS011;9469;51.114;13.914;2023-05-07T15:45:35;6.70;;;5.87;;
18677;SDS011;9469;51.114;13.914;2023-05-07T15:50:45;7.27;;;6.50;;
18677;SDS011;9469;51.114;13.914;2023-05-07T15:55:55;8.00;;;7.20;;
18677;SDS011;9469;51.114;13.914;2023-05-07T16:01:02;8.93;;;6.80;;
18677;SDS011;9469;51.114;13.914;2023-05-07T16:06:15;8.23;;;5.67;;
18677;SDS011;9469;51.114;13.914;2023-05-07T16:11:24;8.53;;;6.30;;
18677;SDS011;9469;51.114;13.914;2023-05-07T16:16:34;6.87;;;6.17;;
18677;SDS011;9469;51.114;13.914;2023-05-07T16:21:42;7.90;;;6.30;;
18677;SDS011;9469;51.114;13.914;2023-05-07T16:26:50;8.87;;;6.30;;
18677;SDS011;9469;51.114;13.914;2023-05-07T16:31:59;8.50;;;7.13;;
18677;SDS011;9469;51.114;13.914;2023-05-07T16:37:15;6.50;;;5.80;;
18677;SDS011;9469;51.114;13.914;2023-05-07T16:42:26;6.87;;;6.17;;
18677;SDS011;9469;51.114;13.914;2023-05-07T16:47:39;7.13;;;6.43;;
18677;SDS011;9469;51.114;13.914;2023-05-07T16:52:47;7.13;;;6.37;;
18677;SDS011;9469;51.114;13.914;2023-05-07T16:57:55;6.30;;;5.70;;
18677;SDS011;9469;51.114;13.914;2023-05-07T17:03:04;9.07;;;6.90;;
18677;SDS011;9469;51.114;13.914;2023-05-07T17:08:09;6.53;;;5.77;;
18677;SDS011;9469;51.114;13.914;2023-05-07T17:13:19;6.47;;;5.67;;
18677;SDS011;9469;51.114;13.914;2023-05-07T17:18:29;7.20;;;5.90;;
18677;SDS011;9469;51.114;13.914;2023-05-07T17:23:38;7.10;;;5.80;;
18677;SDS011;9469;51.114;13.914;2023-05-07T17:28:45;6.07;;;5.47;;
18677;SDS011;9469;51.114;13.914;2023-05-07T17:33:51;6.20;;;5.60;;
18677;SDS011;9469;51.114;13.914;2023-05-07T17:39:02;6.77;;;5.87;;
18677;SDS011;9469;51.114;13.914;2023-05-07T17:44:13;8.53;;;6.47;;
18677;SDS011;9469;51.114;13.914;2023-05-07T17:49:18;10.83;;;6.67;;
18677;SDS011;9469;51.114;13.914;2023-05-07T17:54:25;8.17;;;7.07;;
18677;SDS011;9469;51.114;13.914;2023-05-07T17:59:36;9.13;;;6.30;;
18677;SDS011;9469;51.114;13.914;2023-05-07T18:04:42;9.40;;;6.90;;
18677;SDS011;9469;51.114;13.914;2023-05-07T18:09:49;8.43;;;6.63;;
18677;SDS011;9469;51.114;13.914;2023-05-07T18:15:00;8.47;;;7.40;;
18677;SDS011;9469;51.114;13.914;2023-05-07T18:20:11;7.33;;;5.97;;
18677;SDS011;9469;51.114;13.914;2023-05-07T18:25:19;8.63;;;6.80;;
18677;SDS011;9469;51.114;13.914;2023-05-07T18:30:29;7.93;;;7.13;;
18677;SDS011;9469;51.114;13.914;2023-05-07T18:35:42;7.73;;;6.97;;
18677;SDS011;9469;51.114;13.914;2023-05-07T18:41:00;10.63;;;7.20;;
18677;SDS011;9469;51.114;13.914;2023-05-07T18:46:10;8.93;;;7.30;;
18677;SDS011;9469;51.114;13.914;2023-05-07T18:51:18;8.53;;;7.73;;
18677;SDS011;9469;51.114;13.914;2023-05-07T18:56:24;9.07;;;7.13;;
18677;SDS011;9469;51.114;13.914;2023-05-07T19:01:37;8.43;;;7.60;;
18677;SDS011;9469;51.114;13.914;2023-05-07T19:06:46;9.43;;;7.23;;
18677;SDS011;9469;51.114;13.914;2023-05-07T19:11:57;9.07;;;7.40;;
18677;SDS011;9469;51.114;13.914;2023-05-07T19:17:09;9.40;;;8.07;;
18677;SDS011;9469;51.114;13.914;2023-05-07T19:22:20;8.10;;;7.30;;
18677;SDS011;9469;51.114;13.914;2023-05-07T19:27:26;8.63;;;7.57;;
18677;SDS011;9469;51.114;13.914;2023-05-07T19:32:35;10.33;;;8.07;;
18677;SDS011;9469;51.114;13.914;2023-05-07T19:37:41;8.30;;;7.50;;
18677;SDS011;9469;51.114;13.914;2023-05-07T19:42:48;8.30;;;7.43;;
18677;SDS011;9469;51.114;13.914;2023-05-07T19:47:59;9.67;;;8.00;;
18677;SDS011;9469;51.114;13.914;2023-05-07T19:53:05;8.97;;;8.00;;
18677;SDS011;9469;51.114;13.914;2023-05-07T19:58:11;8.43;;;7.00;;
18677;SDS011;9469;51.114;13.914;2023-05-07T20:03:20;9.33;;;8.23;;
18677;SDS011;9469;51.114;13.914;2023-05-07T20:08:28;9.90;;;8.00;;
18677;SDS011;9469;51.114;13.914;2023-05-07T20:13:34;7.97;;;6.73;;
18677;SDS011;9469;51.114;13.914;2023-05-07T20:18:43;8.43;;;6.93;;
18677;SDS011;9469;51.114;13.914;2023-05-07T20:23:50;8.50;;;6.33;;
18677;SDS011;9469;51.114;13.914;2023-05-07T20:28:55;7.07;;;5.70;;
18677;SDS011;9469;51.114;13.914;2023-05-07T20:34:03;6.60;;;5.50;;
18677;SDS011;9469;51.114;13.914;2023-05-07T20:39:11;6.10;;;5.10;;
18677;SDS011;9469;51.114;13.914;2023-05-07T20:44:18;5.93;;;5.37;;
18677;SDS011;9469;51.114;13.914;2023-05-07T20:49:31;8.50;;;5.67;;
18677;SDS011;9469;51.114;13.914;2023-05-07T20:54:37;7.10;;;5.77;;
18677;SDS011;9469;51.114;13.914;2023-05-07T20:59:44;8.40;;;5.70;;
18677;SDS011;9469;51.114;13.914;2023-05-07T21:04:58;9.53;;;6.47;;
18677;SDS011;9469;51.114;13.914;2023-05-07T21:10:05;6.97;;;6.27;;
18677;SDS011;9469;51.114;13.914;2023-05-07T21:15:14;5.73;;;5.23;;
18677;SDS011;9469;51.114;13.914;2023-05-07T21:20:22;6.20;;;5.60;;
18677;SDS011;9469;51.114;13.914;2023-05-07T21:25:27;7.17;;;6.47;;
18677;SDS011;9469;51.114;13.914;2023-05-07T21:30:33;7.27;;;6.57;;
18677;SDS011;9469;51.114;13.914;2023-05-07T21:35:42;6.97;;;6.27;;
18677;SDS011;9469;51.114;13.914;2023-05-07T21:40:47;8.27;;;6.97;;
18677;SDS011;9469;51.114;13.914;2023-05-07T21:45:52;8.33;;;7.53;;
18677;SDS011;9469;51.114;13.914;2023-05-07T21:51:03;7.77;;;6.97;;
18677;SDS011;9469;51.114;13.914;2023-05-07T21:56:13;8.07;;;7.30;;
18677;SDS011;9469;51.114;13.914;2023-05-07T22:01:18;7.83;;;6.87;;
18677;SDS011;9469;51.114;13.914;2023-05-07T22:06:26;7.30;;;6.60;;
18677;SDS011;9469;51.114;13.914;2023-05-07T22:11:31;7.53;;;6.83;;
18677;SDS011;9469;51.114;13.914;2023-05-07T22:16:37;7.93;;;7.10;;
18677;SDS011;9469;51.114;13.914;2023-05-07T22:21:45;9.43;;;7.50;;
18677;SDS011;9469;51.114;13.914;2023-05-07T22:26:50;8.57;;;7.10;;
18677;SDS011;9469;51.114;13.914;2023-05-07T22:31:55;10.67;;;8.23;;
18677;SDS011;9469;51.114;13.914;2023-05-07T22:37:06;8.63;;;7.70;;
18677;SDS011;9469;51.114;13.914;2023-05-07T22:42:11;10.57;;;7.37;;
18677;SDS011;9469;51.114;13.914;2023-05-07T22:47:18;8.70;;;7.37;;
18677;SDS011;9469;51.114;13.914;2023-05-07T22:52:26;8.30;;;7.50;;
18677;SDS011;9469;51.114;13.914;2023-05-07T22:57:32;8.70;;;7.73;;
18677;SDS011;9469;51.114;13.914;2023-05-07T23:02:37;8.87;;;7.30;;
18677;SDS011;9469;51.114;13.914;2023-05-07T23:07:45;8.40;;;7.43;;
18677;SDS011;9469;51.114;13.914;2023-05-07T23:12:51;10.47;;;7.93;;
18677;SDS011;9469;51.114;13.914;2023-05-07T23:17:58;8.70;;;7.30;;
18677;SDS011;9469;51.114;13.914;2023-05-07T23:23:06;10.17;;;8.03;;
18677;SDS011;9469;51.114;13.914;2023-05-07T23:28:14;9.47;;;8.40;;
18677;SDS011;9469;51.114;13.914;2023-05-07T23:33:21;9.47;;;8.43;;
18677;SDS011;9469;51.114;13.914;2023-05-07T23:38:31;10.07;;;8.50;;
18677;SDS011;9469;51.114;13.914;2023-05-07T23:43:36;9.30;;;8.40;;
18677;SDS011;9469;51.114;13.914;2023-05-07T23:48:42;13.03;;;8.90;;
18677;SDS011;9469;51.114;13.914;2023-05-07T23:53:52;9.27;;;8.13;;
18677;SDS011;9469;51.114;13.914;2023-05-07T23:58:57;9.97;;;8.97;;
